createdAt,value
2017-11-13T00:01:03.245Z,3.61
2017-11-13T00:02:11.867Z,3.53
2017-11-13T00:03:20.484Z,3.5
2017-11-13T00:04:29.107Z,3.56
2017-11-13T00:05:37.733Z,3.5
2017-11-13T00:06:46.349Z,3.49
2017-11-13T00:07:54.973Z,3.33
2017-11-13T00:09:03.597Z,3.4
2017-11-13T00:10:12.210Z,3.33
2017-11-13T00:11:20.843Z,3.45
2017-11-13T00:12:29.454Z,3.46
2017-11-13T00:13:38.079Z,3.43
2017-11-13T00:14:46.702Z,3.41
2017-11-13T00:15:55.318Z,3.45
2017-11-13T00:17:03.940Z,3.36
2017-11-13T00:18:12.553Z,3.36
2017-11-13T00:19:21.183Z,3.31
2017-11-13T00:20:29.800Z,3.34
2017-11-13T00:21:38.416Z,3.31
2017-11-13T00:22:47.042Z,3.22
2017-11-13T00:23:55.666Z,3.31
2017-11-13T00:25:04.280Z,3.33
2017-11-13T00:26:12.904Z,3.31
2017-11-13T00:27:21.530Z,3.3
2017-11-13T00:28:30.151Z,3.21
2017-11-13T00:29:38.768Z,3.24
2017-11-13T00:30:47.394Z,3.22
2017-11-13T00:31:56.009Z,3.24
2017-11-13T00:33:04.641Z,3.24
2017-11-13T00:34:13.586Z,3.37
2017-11-13T00:35:22.208Z,3.3
2017-11-13T00:36:30.830Z,3.31
2017-11-13T00:37:39.453Z,3.3
2017-11-13T00:38:48.072Z,3.27
2017-11-13T00:39:56.697Z,3.3
2017-11-13T00:41:05.320Z,3.19
2017-11-13T00:42:13.945Z,3.22
2017-11-13T00:43:22.556Z,3.24
2017-11-13T00:44:31.182Z,3.27
2017-11-13T00:45:39.801Z,3.24
2017-11-13T00:46:48.414Z,3.19
2017-11-13T00:47:57.037Z,3.19
2017-11-13T00:49:05.663Z,3.13
2017-11-13T00:50:14.284Z,3.22
2017-11-13T00:51:22.900Z,3.24
2017-11-13T00:52:31.528Z,3.29
2017-11-13T00:53:40.148Z,3.24
2017-11-13T00:54:48.771Z,3.18
2017-11-13T00:55:57.384Z,3.29
2017-11-13T00:57:06.018Z,3.12
2017-11-13T00:58:14.631Z,3.18
2017-11-13T00:59:23.252Z,3.12
2017-11-13T01:00:31.868Z,3.21
2017-11-13T01:01:40.494Z,3.12
2017-11-13T01:02:49.114Z,3.24
2017-11-13T01:03:57.731Z,3.13
2017-11-13T01:05:06.356Z,3.27
2017-11-13T01:06:14.975Z,3.22
2017-11-13T01:07:23.595Z,3.22
2017-11-13T01:08:32.226Z,3.22
2017-11-13T01:09:40.833Z,3.15
2017-11-13T01:10:49.462Z,3.13
2017-11-13T01:11:58.078Z,3.12
2017-11-13T01:13:06.697Z,3.16
2017-11-13T01:14:15.324Z,3.22
2017-11-13T01:15:23.943Z,3.24
2017-11-13T01:16:32.562Z,3.26
2017-11-13T01:17:41.180Z,3.26
2017-11-13T01:18:49.800Z,3.24
2017-11-13T01:19:58.771Z,3.24
2017-11-13T01:21:07.390Z,3.26
2017-11-13T01:22:16.006Z,3.24
2017-11-13T01:23:24.635Z,3.29
2017-11-13T01:24:33.246Z,3.33
2017-11-13T01:25:42.201Z,3.33
2017-11-13T01:26:50.820Z,3.26
2017-11-13T01:27:59.436Z,3.33
2017-11-13T01:29:08.067Z,3.34
2017-11-13T01:30:17.012Z,3.29
2017-11-13T01:31:25.634Z,3.22
2017-11-13T01:32:34.594Z,3.31
2017-11-13T01:33:43.210Z,3.4
2017-11-13T01:34:51.831Z,3.45
2017-11-13T01:36:00.462Z,3.4
2017-11-13T01:37:09.074Z,3.41
2017-11-13T01:38:17.688Z,3.49
2017-11-13T01:39:26.312Z,3.45
2017-11-13T01:40:34.936Z,3.46
2017-11-13T01:41:43.554Z,3.41
2017-11-13T01:42:52.171Z,3.48
2017-11-13T01:44:00.792Z,3.43
2017-11-13T01:45:09.415Z,3.4
2017-11-13T01:46:18.026Z,3.49
2017-11-13T01:47:26.651Z,3.43
2017-11-13T01:48:35.272Z,3.52
2017-11-13T01:49:43.888Z,3.49
2017-11-13T01:50:52.515Z,3.49
2017-11-13T01:52:01.130Z,3.59
2017-11-13T01:53:09.746Z,3.56
2017-11-13T01:54:18.368Z,3.56
2017-11-13T01:55:26.985Z,3.66
2017-11-13T01:56:35.613Z,3.53
2017-11-13T01:57:44.235Z,3.67
2017-11-13T01:58:52.853Z,3.68
2017-11-13T02:00:01.479Z,3.7
2017-11-13T02:01:10.433Z,3.63
2017-11-13T02:02:19.381Z,3.67
2017-11-13T02:03:28.002Z,3.67
2017-11-13T02:04:36.619Z,3.68
2017-11-13T02:05:45.234Z,3.76
2017-11-13T02:06:53.858Z,3.82
2017-11-13T02:08:02.472Z,3.88
2017-11-13T02:09:11.428Z,3.89
2017-11-13T02:10:20.045Z,3.91
2017-11-13T02:11:28.663Z,3.84
2017-11-13T02:12:37.290Z,3.76
2017-11-13T02:13:45.914Z,3.74
2017-11-13T02:14:54.548Z,3.81
2017-11-13T02:16:03.149Z,3.78
2017-11-13T02:17:11.764Z,3.82
2017-11-13T02:18:20.393Z,3.82
2017-11-13T02:19:29.007Z,3.82
2017-11-13T02:20:37.627Z,3.84
2017-11-13T02:21:46.247Z,3.85
2017-11-13T02:22:54.861Z,3.77
2017-11-13T02:24:03.493Z,3.77
2017-11-13T02:25:12.107Z,3.78
2017-11-13T02:26:20.726Z,3.89
2017-11-13T02:27:29.355Z,3.95
2017-11-13T02:28:37.972Z,3.99
2017-11-13T02:29:46.588Z,3.88
2017-11-13T02:30:55.214Z,4.03
2017-11-13T02:32:03.835Z,4.04
2017-11-13T02:33:12.448Z,4.09
2017-11-13T02:34:21.070Z,4.09
2017-11-13T02:35:29.695Z,4.18
2017-11-13T02:36:38.315Z,4.12
2017-11-13T02:37:46.934Z,4.18
2017-11-13T02:38:55.553Z,4.3
2017-11-13T02:40:04.178Z,4.39
2017-11-13T02:41:12.797Z,4.49
2017-11-13T02:42:21.743Z,4.5
2017-11-13T02:43:30.369Z,4.5
2017-11-13T02:44:38.986Z,4.56
2017-11-13T02:45:47.611Z,4.57
2017-11-13T02:46:56.232Z,4.56
2017-11-13T02:48:04.853Z,4.53
2017-11-13T02:49:13.802Z,4.57
2017-11-13T02:50:22.424Z,4.48
2017-11-13T02:51:31.050Z,4.39
2017-11-13T02:52:39.664Z,4.38
2017-11-13T02:53:48.287Z,4.38
2017-11-13T02:54:57.251Z,4.34
2017-11-13T02:56:05.856Z,4.45
2017-11-13T02:57:14.475Z,4.48
2017-11-13T02:58:23.095Z,4.49
2017-11-13T02:59:31.718Z,4.4
2017-11-13T03:00:40.333Z,4.48
2017-11-13T03:01:48.952Z,4.57
2017-11-13T03:02:57.569Z,4.5
2017-11-13T03:04:06.196Z,4.56
2017-11-13T03:05:14.813Z,4.5
2017-11-13T03:06:23.435Z,4.48
2017-11-13T03:07:32.067Z,4.49
2017-11-13T03:08:40.678Z,4.43
2017-11-13T03:09:49.303Z,4.42
2017-11-13T03:10:57.921Z,4.36
2017-11-13T03:12:06.538Z,4.32
2017-11-13T03:13:15.171Z,4.3
2017-11-13T03:14:24.118Z,4.3
2017-11-13T03:15:32.742Z,4.27
2017-11-13T03:16:41.359Z,4.28
2017-11-13T03:17:49.981Z,4.21
2017-11-13T03:18:58.956Z,4.25
2017-11-13T03:20:07.575Z,4.3
2017-11-13T03:21:16.193Z,4.27
2017-11-13T03:22:24.806Z,4.28
2017-11-13T03:23:33.426Z,4.27
2017-11-13T03:24:42.049Z,4.22
2017-11-13T03:25:50.665Z,4.28
2017-11-13T03:26:59.283Z,4.27
2017-11-13T03:28:07.912Z,4.28
2017-11-13T03:29:16.527Z,4.25
2017-11-13T03:30:25.150Z,4.31
2017-11-13T03:31:33.780Z,4.42
2017-11-13T03:32:42.395Z,4.49
2017-11-13T03:33:51.013Z,4.46
2017-11-13T03:34:59.637Z,4.56
2017-11-13T03:36:08.254Z,4.56
2017-11-13T03:37:16.880Z,4.48
2017-11-13T03:38:25.503Z,4.56
2017-11-13T03:39:34.121Z,4.5
2017-11-13T03:40:42.749Z,4.56
2017-11-13T03:41:51.364Z,4.52
2017-11-13T03:42:59.981Z,4.53
2017-11-13T03:44:08.605Z,4.52
2017-11-13T03:45:17.227Z,4.53
2017-11-13T03:46:25.845Z,4.66
2017-11-13T03:47:34.467Z,4.63
2017-11-13T03:48:43.087Z,4.66
2017-11-13T03:49:51.706Z,4.66
2017-11-13T03:51:00.327Z,4.66
2017-11-13T03:52:08.945Z,4.67
2017-11-13T03:53:17.565Z,4.68
2017-11-13T03:54:26.189Z,4.78
2017-11-13T03:55:34.803Z,4.78
2017-11-13T03:56:43.424Z,4.87
2017-11-13T03:57:52.048Z,4.94
2017-11-13T03:59:00.671Z,4.92
2017-11-13T04:00:09.296Z,5
2017-11-13T04:01:18.260Z,4.97
2017-11-13T04:02:26.875Z,4.98
2017-11-13T04:03:35.494Z,5.13
2017-11-13T04:04:44.122Z,5.23
2017-11-13T04:05:52.743Z,5.23
2017-11-13T04:07:01.361Z,5.33
2017-11-13T04:08:09.975Z,5.4
2017-11-13T04:09:18.595Z,5.41
2017-11-13T04:10:27.221Z,5.43
2017-11-13T04:11:35.838Z,5.36
2017-11-13T04:12:44.464Z,5.33
2017-11-13T04:13:53.076Z,5.28
2017-11-13T04:15:01.700Z,5.33
2017-11-13T04:16:10.322Z,5.31
2017-11-13T04:17:18.939Z,5.26
2017-11-13T04:18:27.559Z,5.13
2017-11-13T04:19:36.183Z,5.18
2017-11-13T04:20:44.803Z,5.1
2017-11-13T04:21:53.428Z,5.05
2017-11-13T04:23:02.044Z,5.1
2017-11-13T04:24:10.665Z,5.1
2017-11-13T04:25:19.287Z,5.1
2017-11-13T04:26:28.231Z,5.08
2017-11-13T04:27:36.855Z,5.07
2017-11-13T04:28:45.478Z,5.01
2017-11-13T04:29:54.099Z,4.98
2017-11-13T04:31:02.716Z,5
2017-11-13T04:32:11.346Z,5.01
2017-11-13T04:33:19.966Z,4.98
2017-11-13T04:34:28.588Z,4.89
2017-11-13T04:35:37.202Z,4.9
2017-11-13T04:36:45.822Z,4.9
2017-11-13T04:37:54.448Z,4.87
2017-11-13T04:39:03.062Z,4.87
2017-11-13T04:40:11.681Z,4.87
2017-11-13T04:41:20.310Z,4.82
2017-11-13T04:42:28.928Z,4.75
2017-11-13T04:43:37.883Z,4.75
2017-11-13T04:44:46.510Z,4.75
2017-11-13T04:45:55.129Z,4.78
2017-11-13T04:47:03.746Z,4.79
2017-11-13T04:48:12.369Z,4.78
2017-11-13T04:49:20.988Z,4.7
2017-11-13T04:50:29.614Z,4.78
2017-11-13T04:51:38.568Z,4.84
2017-11-13T04:52:47.174Z,4.82
2017-11-13T04:53:55.803Z,4.75
2017-11-13T04:55:04.424Z,4.71
2017-11-13T04:56:13.044Z,4.71
2017-11-13T04:57:21.665Z,4.7
2017-11-13T04:58:30.289Z,4.66
2017-11-13T04:59:38.915Z,4.64
2017-11-13T05:00:47.530Z,4.64
2017-11-13T05:01:56.154Z,4.6
2017-11-13T05:03:04.766Z,4.63
2017-11-13T05:04:13.390Z,4.56
2017-11-13T05:05:22.014Z,4.64
2017-11-13T05:06:30.631Z,4.66
2017-11-13T05:07:39.259Z,4.66
2017-11-13T05:08:47.870Z,4.67
2017-11-13T05:09:56.483Z,4.67
2017-11-13T05:11:05.104Z,4.78
2017-11-13T05:12:13.734Z,4.84
2017-11-13T05:13:22.350Z,4.79
2017-11-13T05:14:30.967Z,4.82
2017-11-13T05:15:39.589Z,4.78
2017-11-13T05:16:48.221Z,4.79
2017-11-13T05:17:57.173Z,4.75
2017-11-13T05:19:05.797Z,4.7
2017-11-13T05:20:14.416Z,4.7
2017-11-13T05:21:23.740Z,4.79
2017-11-13T05:22:33.023Z,4.74
2017-11-13T05:23:41.643Z,4.84
2017-11-13T05:24:50.268Z,4.82
2017-11-13T05:25:58.893Z,4.82
2017-11-13T05:27:07.502Z,4.82
2017-11-13T05:28:16.127Z,4.67
2017-11-13T05:29:25.100Z,4.66
2017-11-13T05:30:33.715Z,4.64
2017-11-13T05:31:42.346Z,4.66
2017-11-13T05:32:51.300Z,4.53
2017-11-13T05:33:59.924Z,4.53
2017-11-13T05:35:08.551Z,4.56
2017-11-13T05:36:17.498Z,4.49
2017-11-13T05:37:26.118Z,4.42
2017-11-13T05:38:34.742Z,4.43
2017-11-13T05:39:43.357Z,4.46
2017-11-13T05:40:51.988Z,4.43
2017-11-13T05:42:00.606Z,4.43
2017-11-13T05:43:09.230Z,4.39
2017-11-13T05:44:17.854Z,4.36
2017-11-13T05:45:26.467Z,4.4
2017-11-13T05:46:35.092Z,4.38
2017-11-13T05:47:43.709Z,4.43
2017-11-13T05:48:52.340Z,4.36
2017-11-13T05:50:00.952Z,4.3
2017-11-13T05:51:09.907Z,4.21
2017-11-13T05:52:18.540Z,4.13
2017-11-13T05:53:27.161Z,4.09
2017-11-13T05:54:35.777Z,4.12
2017-11-13T05:55:44.734Z,4.14
2017-11-13T05:56:53.350Z,4.09
2017-11-13T05:58:01.963Z,4.14
2017-11-13T05:59:10.584Z,4.12
2017-11-13T06:00:19.205Z,4.12
2017-11-13T06:01:27.828Z,4.16
2017-11-13T06:02:36.447Z,4.2
2017-11-13T06:03:45.062Z,4.18
2017-11-13T06:04:53.684Z,4.22
2017-11-13T06:06:02.305Z,4.14
2017-11-13T06:07:10.916Z,4.25
2017-11-13T06:08:19.540Z,4.32
2017-11-13T06:09:28.163Z,4.21
2017-11-13T06:10:36.786Z,4.21
2017-11-13T06:11:45.406Z,4.25
2017-11-13T06:12:54.020Z,4.28
2017-11-13T06:14:02.650Z,4.32
2017-11-13T06:15:11.605Z,4.24
2017-11-13T06:16:20.221Z,4.14
2017-11-13T06:17:28.849Z,4.27
2017-11-13T06:18:37.467Z,4.28
2017-11-13T06:19:46.088Z,4.36
2017-11-13T06:20:54.708Z,4.31
2017-11-13T06:22:03.321Z,4.25
2017-11-13T06:23:11.947Z,4.22
2017-11-13T06:24:20.571Z,4.14
2017-11-13T06:25:29.186Z,4.3
2017-11-13T06:26:38.138Z,4.32
2017-11-13T06:27:46.762Z,4.31
2017-11-13T06:28:55.715Z,4.38
2017-11-13T06:30:04.333Z,4.34
2017-11-13T06:31:12.963Z,4.27
2017-11-13T06:32:21.916Z,4.27
2017-11-13T06:33:30.538Z,4.34
2017-11-13T06:34:39.155Z,4.3
2017-11-13T06:35:47.779Z,4.3
2017-11-13T06:36:56.400Z,4.4
2017-11-13T06:38:05.020Z,4.39
2017-11-13T06:39:13.635Z,4.38
2017-11-13T06:40:22.265Z,4.42
2017-11-13T06:41:30.884Z,4.32
2017-11-13T06:42:39.522Z,4.27
2017-11-13T06:43:48.134Z,4.32
2017-11-13T06:44:56.743Z,4.28
2017-11-13T06:46:05.373Z,4.3
2017-11-13T06:47:13.982Z,4.3
2017-11-13T06:48:22.598Z,4.27
2017-11-13T06:49:31.226Z,4.38
2017-11-13T06:50:39.846Z,4.34
2017-11-13T06:51:48.463Z,4.36
2017-11-13T06:52:57.090Z,4.34
2017-11-13T06:54:06.065Z,4.32
2017-11-13T06:55:14.683Z,4.38
2017-11-13T06:56:23.305Z,4.25
2017-11-13T06:57:31.929Z,4.34
2017-11-13T06:58:40.543Z,4.32
2017-11-13T06:59:49.169Z,4.24
2017-11-13T07:00:57.786Z,4.31
2017-11-13T07:02:06.746Z,4.34
2017-11-13T07:03:15.703Z,4.3
2017-11-13T07:04:24.320Z,4.34
2017-11-13T07:05:32.942Z,4.13
2017-11-13T07:06:41.564Z,4.13
2017-11-13T07:07:50.175Z,4.14
2017-11-13T07:08:58.794Z,4.07
2017-11-13T07:10:07.420Z,4.06
2017-11-13T07:11:16.041Z,4.12
2017-11-13T07:12:24.660Z,4.1
2017-11-13T07:13:33.277Z,4.12
2017-11-13T07:14:41.899Z,4.07
2017-11-13T07:15:50.512Z,4.02
2017-11-13T07:16:59.139Z,4.06
2017-11-13T07:18:07.759Z,4.07
2017-11-13T07:19:16.377Z,4.06
2017-11-13T07:20:25.006Z,4.07
2017-11-13T07:21:33.956Z,4.02
2017-11-13T07:22:42.580Z,4.13
2017-11-13T07:23:51.208Z,4.02
2017-11-13T07:24:59.829Z,4.07
2017-11-13T07:26:08.441Z,4.03
2017-11-13T07:27:17.063Z,4.04
2017-11-13T07:28:25.691Z,4.04
2017-11-13T07:29:34.309Z,4.06
2017-11-13T07:30:42.938Z,4.1
2017-11-13T07:31:51.556Z,4.06
2017-11-13T07:33:00.181Z,4.07
2017-11-13T07:34:08.804Z,4.12
2017-11-13T07:35:17.752Z,4.09
2017-11-13T07:36:26.375Z,4.1
2017-11-13T07:37:34.996Z,4.16
2017-11-13T07:38:43.622Z,4.09
2017-11-13T07:39:52.227Z,4.2
2017-11-13T07:41:00.851Z,4.16
2017-11-13T07:42:09.468Z,4.2
2017-11-13T07:43:18.089Z,4.2
2017-11-13T07:44:26.711Z,4.16
2017-11-13T07:45:35.331Z,4.16
2017-11-13T07:46:43.954Z,4.14
2017-11-13T07:47:52.569Z,4.2
2017-11-13T07:49:01.192Z,4.16
2017-11-13T07:50:09.817Z,4.13
2017-11-13T07:51:18.441Z,4.25
2017-11-13T07:52:27.053Z,4.16
2017-11-13T07:53:35.681Z,4.31
2017-11-13T07:54:44.302Z,4.22
2017-11-13T07:55:52.918Z,4.32
2017-11-13T07:57:01.546Z,4.3
2017-11-13T07:58:10.166Z,4.28
2017-11-13T07:59:18.804Z,4.39
2017-11-13T08:00:27.597Z,4.43
2017-11-13T08:01:36.235Z,4.45
2017-11-13T08:02:44.847Z,4.49
2017-11-13T08:03:53.465Z,4.53
2017-11-13T08:05:02.092Z,4.5
2017-11-13T08:06:10.713Z,4.53
2017-11-13T08:07:19.330Z,4.5
2017-11-13T08:08:27.951Z,4.5
2017-11-13T08:09:36.570Z,4.57
2017-11-13T08:10:45.190Z,4.5
2017-11-13T08:11:53.820Z,4.52
2017-11-13T08:13:02.437Z,4.64
2017-11-13T08:14:11.068Z,4.7
2017-11-13T08:15:19.690Z,4.66
2017-11-13T08:16:28.305Z,4.7
2017-11-13T08:17:36.935Z,4.76
2017-11-13T08:18:45.549Z,4.74
2017-11-13T08:19:54.170Z,4.84
2017-11-13T08:21:02.799Z,4.9
2017-11-13T08:22:11.419Z,4.95
2017-11-13T08:23:20.041Z,5.02
2017-11-13T08:24:28.674Z,4.98
2017-11-13T08:25:37.292Z,5.1
2017-11-13T08:26:45.910Z,5.16
2017-11-13T08:27:54.865Z,5.2
2017-11-13T08:29:03.487Z,5.31
2017-11-13T08:30:12.111Z,5.38
2017-11-13T08:31:20.733Z,5.36
2017-11-13T08:32:29.354Z,5.4
2017-11-13T08:33:37.978Z,5.44
2017-11-13T08:34:46.595Z,5.46
2017-11-13T08:35:55.217Z,5.54
2017-11-13T08:37:04.170Z,5.62
2017-11-13T08:38:12.792Z,5.84
2017-11-13T08:39:21.420Z,5.81
2017-11-13T08:40:30.036Z,6.01
2017-11-13T08:41:38.993Z,6.01
2017-11-13T08:42:47.604Z,6.12
2017-11-13T08:43:56.231Z,6.13
2017-11-13T08:45:04.861Z,6.09
2017-11-13T08:46:13.478Z,6.06
2017-11-13T08:47:22.103Z,6.07
2017-11-13T08:48:30.715Z,6.05
2017-11-13T08:49:40.000Z,6.02
2017-11-13T08:50:48.628Z,5.94
2017-11-13T08:51:57.246Z,5.84
2017-11-13T08:53:05.870Z,5.91
2017-11-13T08:54:14.872Z,5.84
2017-11-13T08:55:23.488Z,5.9
2017-11-13T08:56:32.111Z,5.81
2017-11-13T08:57:40.740Z,5.81
2017-11-13T08:58:49.363Z,5.88
2017-11-13T08:59:58.324Z,5.99
2017-11-13T09:01:06.939Z,5.97
2017-11-13T09:02:15.561Z,5.97
2017-11-13T09:03:24.186Z,5.98
2017-11-13T09:04:32.807Z,5.92
2017-11-13T09:05:41.435Z,5.95
2017-11-13T09:06:50.051Z,6.01
2017-11-13T09:07:58.675Z,5.98
2017-11-13T09:09:07.634Z,5.9
2017-11-13T09:10:16.253Z,5.99
2017-11-13T09:11:24.879Z,5.97
2017-11-13T09:12:33.504Z,5.95
2017-11-13T09:13:42.130Z,5.88
2017-11-13T09:14:50.756Z,5.91
2017-11-13T09:15:59.374Z,5.84
2017-11-13T09:17:07.998Z,5.91
2017-11-13T09:18:16.623Z,5.92
2017-11-13T09:19:25.242Z,5.87
2017-11-13T09:20:34.195Z,5.97
2017-11-13T09:21:42.816Z,6.01
2017-11-13T09:22:51.438Z,5.98
2017-11-13T09:24:00.057Z,6.13
2017-11-13T09:25:08.685Z,6.16
2017-11-13T09:26:17.313Z,6.19
2017-11-13T09:27:25.927Z,6.29
2017-11-13T09:28:34.547Z,6.35
2017-11-13T09:29:43.169Z,6.41
2017-11-13T09:30:51.796Z,6.41
2017-11-13T09:32:00.414Z,6.54
2017-11-13T09:33:09.376Z,6.52
2017-11-13T09:34:18.008Z,6.6
2017-11-13T09:35:26.629Z,6.72
2017-11-13T09:36:35.256Z,6.78
2017-11-13T09:37:43.876Z,6.82
2017-11-13T09:38:52.503Z,6.92
2017-11-13T09:40:01.201Z,6.96
2017-11-13T09:41:09.869Z,7.01
2017-11-13T09:42:18.561Z,7.08
2017-11-13T09:43:27.251Z,7.14
2017-11-13T09:44:35.947Z,7.14
2017-11-13T09:45:44.992Z,7.15
2017-11-13T09:46:53.669Z,7.18
2017-11-13T09:48:02.354Z,7.19
2017-11-13T09:49:11.042Z,7.14
2017-11-13T09:50:19.728Z,7.11
2017-11-13T09:51:28.422Z,7.1
2017-11-13T09:52:37.115Z,7.07
2017-11-13T09:53:45.799Z,7.1
2017-11-13T09:54:54.482Z,7.11
2017-11-13T09:56:03.184Z,7.21
2017-11-13T09:57:12.199Z,7.08
2017-11-13T09:58:20.877Z,7.19
2017-11-13T09:59:29.576Z,7.22
2017-11-13T10:00:38.266Z,7.21
2017-11-13T10:01:46.964Z,7.22
2017-11-13T10:02:55.649Z,7.31
2017-11-13T10:04:04.353Z,7.37
2017-11-13T10:05:13.041Z,7.41
2017-11-13T10:06:21.730Z,7.44
2017-11-13T10:07:30.427Z,7.41
2017-11-13T10:08:39.111Z,7.53
2017-11-13T10:09:48.126Z,7.51
2017-11-13T10:10:56.820Z,7.51
2017-11-13T10:12:05.505Z,7.53
2017-11-13T10:13:14.196Z,7.56
2017-11-13T10:14:22.876Z,7.48
2017-11-13T10:15:31.563Z,7.46
2017-11-13T10:16:40.594Z,7.48
2017-11-13T10:17:49.625Z,7.46
2017-11-13T10:18:58.312Z,7.36
2017-11-13T10:20:07.002Z,7.43
2017-11-13T10:21:15.692Z,7.33
2017-11-13T10:22:24.708Z,7.26
2017-11-13T10:23:33.751Z,7.28
2017-11-13T10:24:42.439Z,7.18
2017-11-13T10:25:51.135Z,7.13
2017-11-13T10:26:59.821Z,7.19
2017-11-13T10:28:08.507Z,7.23
2017-11-13T10:29:17.207Z,7.21
2017-11-13T10:30:25.892Z,7.25
2017-11-13T10:31:34.572Z,7.37
2017-11-13T10:32:43.262Z,7.31
2017-11-13T10:33:51.950Z,7.36
2017-11-13T10:35:00.636Z,7.47
2017-11-13T10:36:09.683Z,7.46
2017-11-13T10:37:18.371Z,7.44
2017-11-13T10:38:27.054Z,7.66
2017-11-13T10:39:35.744Z,7.56
2017-11-13T10:40:44.423Z,7.58
2017-11-13T10:41:53.117Z,7.77
2017-11-13T10:43:01.807Z,7.78
2017-11-13T10:44:10.491Z,7.84
2017-11-13T10:45:19.198Z,7.77
2017-11-13T10:46:27.893Z,7.72
2017-11-13T10:47:36.570Z,7.78
2017-11-13T10:48:45.617Z,7.88
2017-11-13T10:49:54.649Z,7.91
2017-11-13T10:51:03.334Z,7.91
2017-11-13T10:52:12.018Z,7.98
2017-11-13T10:53:20.717Z,8.01
2017-11-13T10:54:29.418Z,8.02
2017-11-13T10:55:38.108Z,8.02
2017-11-13T10:56:46.794Z,8.02
2017-11-13T10:57:55.497Z,8.02
2017-11-13T10:59:04.178Z,8.09
2017-11-13T11:00:12.871Z,8.09
2017-11-13T11:01:21.560Z,8.06
2017-11-13T11:02:30.260Z,8.09
2017-11-13T11:03:38.957Z,8.11
2017-11-13T11:04:47.658Z,8.17
2017-11-13T11:05:56.348Z,8.21
2017-11-13T11:07:05.042Z,8.34
2017-11-13T11:08:13.727Z,8.28
2017-11-13T11:09:22.421Z,8.36
2017-11-13T11:10:31.121Z,8.36
2017-11-13T11:11:39.833Z,8.42
2017-11-13T11:12:48.520Z,8.36
2017-11-13T11:13:57.218Z,8.46
2017-11-13T11:15:05.908Z,8.49
2017-11-13T11:16:14.601Z,8.46
2017-11-13T11:17:23.296Z,8.46
2017-11-13T11:18:31.981Z,8.44
2017-11-13T11:19:40.682Z,8.53
2017-11-13T11:20:49.732Z,8.54
2017-11-13T11:21:58.416Z,8.57
2017-11-13T11:23:07.114Z,8.63
2017-11-13T11:24:15.816Z,8.56
2017-11-13T11:25:24.854Z,8.6
2017-11-13T11:26:33.891Z,8.54
2017-11-13T11:27:42.581Z,8.59
2017-11-13T11:28:51.279Z,8.53
2017-11-13T11:29:59.980Z,8.6
2017-11-13T11:31:08.680Z,8.66
2017-11-13T11:32:17.376Z,8.69
2017-11-13T11:33:26.077Z,8.6
2017-11-13T11:34:34.770Z,8.63
2017-11-13T11:35:43.468Z,8.66
2017-11-13T11:36:52.505Z,8.63
2017-11-13T11:38:01.203Z,8.75
2017-11-13T11:39:10.235Z,8.69
2017-11-13T11:40:18.930Z,8.74
2017-11-13T11:41:27.630Z,8.74
2017-11-13T11:42:36.332Z,8.69
2017-11-13T11:43:45.032Z,8.74
2017-11-13T11:44:54.067Z,8.79
2017-11-13T11:46:02.775Z,8.92
2017-11-13T11:47:11.471Z,8.92
2017-11-13T11:48:20.177Z,9.02
2017-11-13T11:49:28.876Z,8.93
2017-11-13T11:50:37.581Z,8.97
2017-11-13T11:51:46.267Z,8.95
2017-11-13T11:52:54.970Z,8.92
2017-11-13T11:54:03.663Z,8.92
2017-11-13T11:55:12.368Z,9.03
2017-11-13T11:56:21.066Z,9.03
2017-11-13T11:57:30.111Z,9.15
2017-11-13T11:58:38.806Z,9.09
2017-11-13T11:59:47.507Z,9.12
2017-11-13T12:00:56.206Z,9.12
2017-11-13T12:02:05.249Z,9.09
2017-11-13T12:03:13.938Z,9.16
2017-11-13T12:04:22.644Z,9.16
2017-11-13T12:05:31.339Z,9.16
2017-11-13T12:06:40.036Z,9.15
2017-11-13T12:07:48.738Z,9.13
2017-11-13T12:08:57.428Z,9.19
2017-11-13T12:10:06.134Z,9.21
2017-11-13T12:11:14.828Z,9.24
2017-11-13T12:12:23.864Z,9.21
2017-11-13T12:13:32.573Z,9.15
2017-11-13T12:14:41.269Z,9.16
2017-11-13T12:15:49.960Z,9.27
2017-11-13T12:16:58.661Z,9.31
2017-11-13T12:18:07.365Z,9.47
2017-11-13T12:19:16.060Z,9.42
2017-11-13T12:20:24.760Z,9.56
2017-11-13T12:21:33.460Z,9.55
2017-11-13T12:22:42.485Z,9.58
2017-11-13T12:23:51.188Z,9.47
2017-11-13T12:24:59.888Z,9.42
2017-11-13T12:26:08.590Z,9.48
2017-11-13T12:27:17.637Z,9.31
2017-11-13T12:28:26.322Z,9.27
2017-11-13T12:29:35.018Z,9.26
2017-11-13T12:30:43.714Z,9.19
2017-11-13T12:31:52.409Z,9.15
2017-11-13T12:33:01.106Z,9.03
2017-11-13T12:34:09.796Z,9.12
2017-11-13T12:35:18.496Z,8.97
2017-11-13T12:36:27.187Z,8.82
2017-11-13T12:37:35.894Z,8.81
2017-11-13T12:38:44.589Z,8.86
2017-11-13T12:39:53.295Z,8.93
2017-11-13T12:41:02.356Z,8.95
2017-11-13T12:42:11.054Z,8.89
2017-11-13T12:43:19.758Z,9.02
2017-11-13T12:44:28.451Z,8.95
2017-11-13T12:45:37.148Z,8.93
2017-11-13T12:46:46.194Z,9
2017-11-13T12:47:54.886Z,8.97
2017-11-13T12:49:03.582Z,8.95
2017-11-13T12:50:12.287Z,9
2017-11-13T12:51:21.330Z,8.95
2017-11-13T12:52:30.028Z,9.03
2017-11-13T12:53:38.724Z,8.99
2017-11-13T12:54:47.418Z,9.11
2017-11-13T12:55:56.124Z,8.99
2017-11-13T12:57:04.818Z,9.11
2017-11-13T12:58:13.518Z,9.18
2017-11-13T12:59:22.225Z,9.24
2017-11-13T13:00:30.914Z,9.3
2017-11-13T13:01:39.616Z,9.36
2017-11-13T13:02:48.314Z,9.34
2017-11-13T13:03:57.011Z,9.49
2017-11-13T13:05:05.716Z,9.52
2017-11-13T13:06:14.753Z,9.58
2017-11-13T13:07:23.453Z,9.63
2017-11-13T13:08:32.145Z,9.62
2017-11-13T13:09:40.846Z,9.59
2017-11-13T13:10:49.545Z,9.62
2017-11-13T13:11:58.243Z,9.64
2017-11-13T13:13:06.940Z,9.59
2017-11-13T13:14:15.653Z,9.59
2017-11-13T13:15:24.346Z,9.56
2017-11-13T13:16:33.060Z,9.56
2017-11-13T13:17:41.749Z,9.51
2017-11-13T13:18:50.446Z,9.54
2017-11-13T13:19:59.145Z,9.54
2017-11-13T13:21:07.846Z,9.42
2017-11-13T13:22:16.876Z,9.47
2017-11-13T13:23:25.587Z,9.39
2017-11-13T13:24:34.309Z,9.47
2017-11-13T13:25:42.975Z,9.49
2017-11-13T13:26:51.689Z,9.49
2017-11-13T13:28:00.392Z,9.49
2017-11-13T13:29:09.430Z,9.49
2017-11-13T13:30:18.123Z,9.52
2017-11-13T13:31:26.820Z,9.42
2017-11-13T13:32:35.909Z,9.47
2017-11-13T13:33:44.607Z,9.44
2017-11-13T13:34:53.301Z,9.48
2017-11-13T13:36:02.005Z,9.45
2017-11-13T13:37:10.697Z,9.39
2017-11-13T13:38:19.398Z,9.36
2017-11-13T13:39:28.097Z,9.33
2017-11-13T13:40:36.795Z,9.15
2017-11-13T13:41:45.502Z,9.22
2017-11-13T13:42:54.199Z,9.18
2017-11-13T13:44:03.259Z,9.24
2017-11-13T13:45:11.955Z,9.13
2017-11-13T13:46:20.652Z,9.18
2017-11-13T13:47:29.350Z,9.24
2017-11-13T13:48:38.056Z,9.24
2017-11-13T13:49:46.749Z,9.24
2017-11-13T13:50:55.444Z,9.19
2017-11-13T13:52:04.145Z,9.22
2017-11-13T13:53:12.842Z,9.21
2017-11-13T13:54:21.547Z,9.19
2017-11-13T13:55:30.247Z,9.09
2017-11-13T13:56:38.945Z,9.08
2017-11-13T13:57:47.648Z,9.08
2017-11-13T13:58:56.341Z,9.09
2017-11-13T14:00:05.049Z,8.99
2017-11-13T14:01:13.745Z,9
2017-11-13T14:02:22.442Z,9
2017-11-13T14:03:31.147Z,9.02
2017-11-13T14:04:39.838Z,9
2017-11-13T14:05:48.536Z,8.95
2017-11-13T14:06:57.234Z,8.97
2017-11-13T14:08:05.931Z,9
2017-11-13T14:09:14.635Z,8.89
2017-11-13T14:10:23.333Z,8.93
2017-11-13T14:11:32.028Z,8.81
2017-11-13T14:12:40.739Z,8.89
2017-11-13T14:13:49.773Z,8.69
2017-11-13T14:14:58.470Z,8.66
2017-11-13T14:16:07.166Z,8.64
2017-11-13T14:17:15.868Z,8.61
2017-11-13T14:18:24.559Z,8.56
2017-11-13T14:19:33.270Z,8.6
2017-11-13T14:20:42.303Z,8.6
2017-11-13T14:21:51.005Z,8.57
2017-11-13T14:22:59.700Z,8.53
2017-11-13T14:24:08.404Z,8.46
2017-11-13T14:25:17.100Z,8.42
2017-11-13T14:26:25.800Z,8.38
2017-11-13T14:27:34.491Z,8.42
2017-11-13T14:28:43.192Z,8.39
2017-11-13T14:29:51.892Z,8.31
2017-11-13T14:31:00.585Z,8.31
2017-11-13T14:32:09.285Z,8.27
2017-11-13T14:33:17.983Z,8.23
2017-11-13T14:34:26.679Z,8.27
2017-11-13T14:35:35.392Z,8.27
2017-11-13T14:36:44.074Z,8.28
2017-11-13T14:37:52.772Z,8.26
2017-11-13T14:39:01.473Z,8.23
2017-11-13T14:40:10.173Z,8.18
2017-11-13T14:41:18.867Z,8.18
2017-11-13T14:42:27.566Z,8.17
2017-11-13T14:43:36.277Z,8.17
2017-11-13T14:44:44.975Z,8.17
2017-11-13T14:45:53.680Z,8.16
2017-11-13T14:47:02.367Z,8.17
2017-11-13T14:48:11.061Z,8.03
2017-11-13T14:49:19.767Z,8.06
2017-11-13T14:50:28.457Z,7.99
2017-11-13T14:51:37.165Z,7.98
2017-11-13T14:52:45.851Z,7.88
2017-11-13T14:53:54.546Z,7.88
2017-11-13T14:55:03.251Z,7.8
2017-11-13T14:56:11.944Z,7.75
2017-11-13T14:57:20.647Z,7.74
2017-11-13T14:58:29.336Z,7.75
2017-11-13T14:59:38.375Z,7.78
2017-11-13T15:00:47.078Z,7.69
2017-11-13T15:01:55.774Z,7.69
2017-11-13T15:03:04.483Z,7.74
2017-11-13T15:04:13.173Z,7.7
2017-11-13T15:05:21.855Z,7.77
2017-11-13T15:06:30.874Z,7.66
2017-11-13T15:07:39.502Z,7.67
2017-11-13T15:08:48.133Z,7.53
2017-11-13T15:09:56.755Z,7.58
2017-11-13T15:11:05.384Z,7.5
2017-11-13T15:12:13.998Z,7.61
2017-11-13T15:13:22.637Z,7.5
2017-11-13T15:14:31.251Z,7.44
2017-11-13T15:15:39.881Z,7.53
2017-11-13T15:16:48.510Z,7.47
2017-11-13T15:17:57.133Z,7.47